createdAt,value
2019-01-11T04:17:27.258Z,3.10
2019-01-11T04:20:01.986Z,5.83
2019-01-11T04:22:29.634Z,3.63
2019-01-11T04:25:17.256Z,3.63
2019-01-11T04:27:46.282Z,3.63
2019-01-11T04:30:18.122Z,5.80
2019-01-11T04:32:47.331Z,4.70
2019-01-11T04:35:16.712Z,4.00
2019-01-11T04:37:45.821Z,3.90
2019-01-11T04:40:16.990Z,3.90
2019-01-11T04:42:46.242Z,4.07
2019-01-11T04:45:15.398Z,5.10
2019-01-11T04:47:44.476Z,5.63
2019-01-11T04:50:16.330Z,4.40
2019-01-11T04:52:46.309Z,3.23
2019-01-11T04:55:16.050Z,4.10
2019-01-11T04:57:45.314Z,7.00
2019-01-11T05:00:19.915Z,6.63
2019-01-11T05:02:49.201Z,4.30
2019-01-11T05:05:18.478Z,5.17
2019-01-11T05:07:47.474Z,4.80
2019-01-11T05:10:18.141Z,5.67
2019-01-11T05:12:47.205Z,6.77
2019-01-11T05:15:16.452Z,3.90
2019-01-11T05:17:45.616Z,4.60
2019-01-11T05:20:17.341Z,5.97
2019-01-11T05:22:46.818Z,4.93
2019-01-11T05:25:15.962Z,10.30
2019-01-11T05:27:45.048Z,5.43
2019-01-11T05:30:16.487Z,7.43
2019-01-11T05:32:45.487Z,4.10
2019-01-11T05:35:14.928Z,5.10
2019-01-11T05:37:44.033Z,5.10
2019-01-11T05:40:15.802Z,3.77
2019-01-11T05:42:44.888Z,5.27
2019-01-11T05:45:15.430Z,8.00
2019-01-11T05:47:44.511Z,5.97
2019-01-11T05:50:15.829Z,4.33
2019-01-11T05:52:45.090Z,8.00
2019-01-11T05:55:23.143Z,5.00
2019-01-11T05:58:11.250Z,9.60
2019-01-11T06:00:40.212Z,5.20
2019-01-11T06:03:09.371Z,5.17
2019-01-11T06:05:38.455Z,4.73
2019-01-11T06:08:13.063Z,5.90
2019-01-11T06:10:42.121Z,5.73
2019-01-11T06:13:11.212Z,4.33
2019-01-11T06:15:40.298Z,7.50
2019-01-11T06:18:09.512Z,4.90
2019-01-11T06:20:38.542Z,7.27
2019-01-11T06:23:07.642Z,5.13
2019-01-11T06:25:36.685Z,5.20
2019-01-11T06:28:05.825Z,8.90
2019-01-11T06:30:34.902Z,9.30
2019-01-11T06:33:03.951Z,6.70
2019-01-11T06:35:33.730Z,14.07
2019-01-11T06:38:02.895Z,5.20
2019-01-11T06:40:32.045Z,5.10
2019-01-11T06:43:03.663Z,5.63
2019-01-11T06:45:31.914Z,5.50
2019-01-11T06:48:01.271Z,8.80
2019-01-11T06:50:36.338Z,7.43
2019-01-11T06:53:01.118Z,9.60
2019-01-11T06:55:30.324Z,6.63
2019-01-11T06:57:59.334Z,6.80
2019-01-11T07:00:28.350Z,5.80
2019-01-11T07:02:57.347Z,10.10
2019-01-11T07:05:26.300Z,10.33
2019-01-11T07:07:55.409Z,10.63
2019-01-11T07:10:27.152Z,7.73
2019-01-11T07:12:56.220Z,8.53
2019-01-11T07:15:25.364Z,8.83
2019-01-11T07:17:54.451Z,8.47
2019-01-11T07:20:25.948Z,8.10
2019-01-11T07:22:55.038Z,7.27
2019-01-11T07:25:24.206Z,9.37
2019-01-11T07:28:00.918Z,6.87
2019-01-11T07:30:52.466Z,9.40
2019-01-11T07:33:23.012Z,9.50
2019-01-11T07:35:52.932Z,6.60
2019-01-11T07:38:21.913Z,7.83
2019-01-11T07:40:51.020Z,6.97
2019-01-11T07:43:20.302Z,8.33
2019-01-11T07:45:49.321Z,6.40
2019-01-11T07:48:18.339Z,5.83
2019-01-11T07:50:49.450Z,7.90
2019-01-11T07:53:18.058Z,7.17
2019-01-11T07:55:47.062Z,5.87
2019-01-11T07:58:16.167Z,6.13
2019-01-11T08:00:45.465Z,7.97
2019-01-11T08:03:14.422Z,7.57
2019-01-11T08:05:43.380Z,7.73
2019-01-11T08:08:12.452Z,4.80
2019-01-11T08:10:41.498Z,4.67
2019-01-11T08:13:10.569Z,5.90
2019-01-11T08:15:39.617Z,4.83
2019-01-11T08:18:08.773Z,5.90
2019-01-11T08:20:37.909Z,11.30
2019-01-11T08:23:06.986Z,3.43
2019-01-11T08:25:36.103Z,6.53
2019-01-11T08:28:05.199Z,4.90
2019-01-11T08:30:34.201Z,4.17
2019-01-11T08:33:03.312Z,4.10
2019-01-11T08:35:32.595Z,3.60
2019-01-11T08:38:01.600Z,6.23
2019-01-11T08:40:30.829Z,3.43
2019-01-11T08:42:59.820Z,5.90
2019-01-11T08:45:28.831Z,3.57
2019-01-11T08:47:57.882Z,2.83
2019-01-11T08:50:27.172Z,3.23
2019-01-11T08:52:57.795Z,3.50
2019-01-11T08:55:28.606Z,2.83
2019-01-11T08:57:57.799Z,2.20
2019-01-11T09:00:27.226Z,6.10
2019-01-11T09:02:56.356Z,2.33
2019-01-11T09:05:25.503Z,2.63
2019-01-11T09:07:54.588Z,2.40
2019-01-11T09:10:24.793Z,2.37
2019-01-11T09:12:53.979Z,2.83
2019-01-11T09:15:22.973Z,3.23
2019-01-11T09:18:04.903Z,2.13
2019-01-11T09:20:34.041Z,3.90
2019-01-11T09:23:03.070Z,2.67
2019-01-11T09:25:32.175Z,2.57
2019-01-11T09:28:01.156Z,4.50
2019-01-11T09:30:30.519Z,2.40
2019-01-11T09:32:59.648Z,3.90
2019-01-11T09:35:28.717Z,2.40
2019-01-11T09:37:57.775Z,1.90
2019-01-11T09:40:27.146Z,5.00
2019-01-11T09:42:56.175Z,2.43
2019-01-11T09:45:25.267Z,1.93
2019-01-11T09:47:54.431Z,2.30
2019-01-11T09:50:24.798Z,2.02
2019-01-11T09:52:53.986Z,2.20
2019-01-11T09:55:23.331Z,2.77
2019-01-11T09:57:52.332Z,3.00
2019-01-11T10:00:23.650Z,2.40
2019-01-11T10:03:01.973Z,2.50
2019-01-11T10:05:31.065Z,4.63
2019-01-11T10:08:00.154Z,2.40
2019-01-11T10:10:29.419Z,3.07
2019-01-11T10:12:58.410Z,2.80
2019-01-11T10:15:27.531Z,3.27
2019-01-11T10:17:56.498Z,5.70
2019-01-11T10:20:25.647Z,3.00
2019-01-11T10:22:54.720Z,3.47
2019-01-11T10:25:23.903Z,3.70
2019-01-11T10:27:52.963Z,4.07
2019-01-11T10:30:30.483Z,2.83
2019-01-11T10:32:59.603Z,4.40
2019-01-11T10:35:28.755Z,4.23
2019-01-11T10:37:57.765Z,4.17
2019-01-11T10:40:26.842Z,3.50
2019-01-11T10:42:55.982Z,6.50
2019-01-11T10:45:25.228Z,3.73
2019-01-11T10:47:54.900Z,3.27
2019-01-11T10:50:24.114Z,6.43
2019-01-11T10:52:53.360Z,7.90
2019-01-11T10:55:22.571Z,6.40
2019-01-11T10:57:51.644Z,4.80
2019-01-11T11:00:23.336Z,5.40
2019-01-11T11:02:52.692Z,6.47
2019-01-11T11:05:22.394Z,8.27
2019-01-11T11:07:51.483Z,5.00
2019-01-11T11:10:20.589Z,6.10
2019-01-11T11:12:49.626Z,6.30
2019-01-11T11:15:20.498Z,5.13
2019-01-11T11:17:49.577Z,8.07
2019-01-11T11:20:20.211Z,6.77
2019-01-11T11:22:49.373Z,4.50
2019-01-11T11:25:20.179Z,6.00
2019-01-11T11:27:49.231Z,7.77
2019-01-11T11:30:19.635Z,7.17
2019-01-11T11:32:59.007Z,5.70
2019-01-11T11:35:31.658Z,5.67
2019-01-11T11:38:00.743Z,8.67
2019-01-11T11:40:32.743Z,5.77
2019-01-11T11:43:01.709Z,6.07
2019-01-11T11:45:31.027Z,6.43
2019-01-11T11:48:00.022Z,4.70
2019-01-11T11:50:29.119Z,8.30
2019-01-11T11:52:58.299Z,4.83
2019-01-11T11:55:27.353Z,5.67
2019-01-11T11:57:56.545Z,5.20
2019-01-11T12:00:27.098Z,6.27
2019-01-11T12:02:56.112Z,5.73
2019-01-11T12:05:25.327Z,7.87
2019-01-11T12:07:54.498Z,5.20
2019-01-11T12:10:23.627Z,7.10
2019-01-11T12:12:52.775Z,5.07
2019-01-11T12:15:21.818Z,6.10
2019-01-11T12:17:50.815Z,6.20
2019-01-11T12:20:28.482Z,9.83
2019-01-11T12:22:57.563Z,9.70
2019-01-11T12:25:26.666Z,6.73
2019-01-11T12:27:55.743Z,9.20
2019-01-11T12:30:24.803Z,8.07
2019-01-11T12:32:53.802Z,4.93
2019-01-11T12:35:22.970Z,6.53
2019-01-11T12:37:51.975Z,6.60
2019-01-11T12:40:20.900Z,8.07
2019-01-11T12:42:50.065Z,5.10
2019-01-11T12:45:19.228Z,5.37
2019-01-11T12:47:48.642Z,7.00
2019-01-11T12:50:27.677Z,7.30
2019-01-11T12:52:56.808Z,7.07
2019-01-11T12:55:25.863Z,6.67
2019-01-11T12:57:54.964Z,6.70
2019-01-11T13:00:24.118Z,8.43
2019-01-11T13:02:53.221Z,8.23
2019-01-11T13:05:22.658Z,5.80
2019-01-11T13:07:51.713Z,7.23
2019-01-11T13:10:21.367Z,8.53
2019-01-11T13:12:50.385Z,5.60
2019-01-11T13:15:21.245Z,7.23
2019-01-11T13:17:50.362Z,6.17
2019-01-11T13:20:21.295Z,9.70
2019-01-11T13:22:50.621Z,10.30
2019-01-11T13:25:19.738Z,7.90
2019-01-11T13:27:48.878Z,8.47
2019-01-11T13:30:18.532Z,6.80
2019-01-11T13:32:47.790Z,5.37
2019-01-11T13:35:16.871Z,7.47
2019-01-11T13:37:45.957Z,13.37
2019-01-11T13:40:20.759Z,8.27
2019-01-11T13:42:49.927Z,5.97
2019-01-11T13:45:19.054Z,5.63
2019-01-11T13:47:48.486Z,10.10
2019-01-11T13:50:34.303Z,5.70
2019-01-11T13:53:03.569Z,7.50
2019-01-11T13:55:32.654Z,9.20
2019-01-11T13:58:01.690Z,7.50
2019-01-11T14:00:30.699Z,12.93
2019-01-11T14:02:59.771Z,10.00
2019-01-11T14:05:28.921Z,7.83
2019-01-11T14:07:58.078Z,8.30
2019-01-11T14:10:27.246Z,9.97
2019-01-11T14:12:56.326Z,10.30
2019-01-11T14:15:26.768Z,10.27
2019-01-11T14:17:55.918Z,10.70
2019-01-11T14:20:24.998Z,9.97
2019-01-11T14:22:54.039Z,11.30
2019-01-11T14:25:23.211Z,7.80
2019-01-11T14:27:52.314Z,10.43
2019-01-11T14:30:21.473Z,10.57
2019-01-11T14:32:50.467Z,11.57
2019-01-11T14:35:19.696Z,12.03
2019-01-11T14:37:48.734Z,10.17
2019-01-11T14:40:17.804Z,14.27
2019-01-11T14:42:46.779Z,12.30
2019-01-11T14:45:16.759Z,19.10
2019-01-11T14:47:45.742Z,17.17
2019-01-11T14:50:16.872Z,12.17
2019-01-11T14:52:46.202Z,9.87
2019-01-11T14:55:18.057Z,9.90
2019-01-11T14:57:47.384Z,12.10
2019-01-11T15:00:19.118Z,9.73
2019-01-11T15:02:48.399Z,11.70
2019-01-11T15:05:17.797Z,9.73
2019-01-11T15:07:46.871Z,11.93
2019-01-11T15:10:16.078Z,10.10
2019-01-11T15:12:47.431Z,11.60
2019-01-11T15:15:16.590Z,9.80
2019-01-11T15:17:45.727Z,8.63
2019-01-11T15:20:16.578Z,10.90
2019-01-11T15:22:46.078Z,11.47
2019-01-11T15:25:15.149Z,13.10
2019-01-11T15:27:44.560Z,12.60
2019-01-11T15:30:16.416Z,13.33
2019-01-11T15:32:45.545Z,13.40
2019-01-11T15:35:14.830Z,10.37
2019-01-11T15:37:44.043Z,9.03
2019-01-11T15:40:19.590Z,13.07
2019-01-11T15:42:48.673Z,13.67
2019-01-11T15:45:17.735Z,16.43
2019-01-11T15:47:46.842Z,14.67
2019-01-11T15:50:36.633Z,17.43
2019-01-11T15:53:05.654Z,11.80
2019-01-11T15:55:34.818Z,15.90
2019-01-11T15:58:03.883Z,12.03
2019-01-11T16:00:34.463Z,14.60
2019-01-11T16:03:03.498Z,13.60
2019-01-11T16:05:32.618Z,13.33
2019-01-11T16:08:01.641Z,12.30
2019-01-11T16:10:30.724Z,12.43
2019-01-11T16:13:19.878Z,16.83
2019-01-11T16:16:21.499Z,14.80
2019-01-11T16:18:51.834Z,14.80
2019-01-11T16:21:20.741Z,13.77
2019-01-11T16:23:49.852Z,17.97
2019-01-11T16:26:20.455Z,17.43
2019-01-11T16:28:49.475Z,15.90
2019-01-11T16:31:18.382Z,23.87
2019-01-11T16:33:47.370Z,17.07
2019-01-11T16:36:16.434Z,18.30
2019-01-11T16:38:45.687Z,18.73
2019-01-11T16:41:14.721Z,19.43
2019-01-11T16:43:43.721Z,21.30
2019-01-11T16:46:12.936Z,18.63
2019-01-11T16:48:41.946Z,18.67
2019-01-11T16:51:10.866Z,23.17
2019-01-11T16:53:39.882Z,21.97
2019-01-11T16:56:09.086Z,24.17
2019-01-11T16:58:38.190Z,19.80
2019-01-11T17:01:07.216Z,20.17
2019-01-11T17:03:36.318Z,22.30
2019-01-11T17:06:05.773Z,24.10
2019-01-11T17:08:34.852Z,22.97
2019-01-11T17:11:03.919Z,20.63
2019-01-11T17:13:32.968Z,20.37
2019-01-11T17:16:02.124Z,22.80
2019-01-11T17:18:31.077Z,21.33
2019-01-11T17:21:00.195Z,21.33
2019-01-11T17:23:29.219Z,24.20
2019-01-11T17:25:58.223Z,18.07
2019-01-11T17:28:27.464Z,25.10
2019-01-11T17:30:56.650Z,19.93
2019-01-11T17:33:25.695Z,25.37
2019-01-11T17:35:54.770Z,24.97
2019-01-11T17:38:23.712Z,20.60
2019-01-11T17:40:52.927Z,23.10
2019-01-11T17:43:22.060Z,20.70
2019-01-11T17:45:51.054Z,19.73
2019-01-11T17:48:20.295Z,20.40
2019-01-11T17:50:49.407Z,16.80
2019-01-11T17:53:18.490Z,27.10
2019-01-11T17:55:47.634Z,21.10
2019-01-11T17:58:16.580Z,14.63
2019-01-11T18:00:45.928Z,15.77
2019-01-11T18:03:15.131Z,14.57
2019-01-11T18:05:44.284Z,19.37
2019-01-11T18:08:13.332Z,16.93
2019-01-11T18:10:42.436Z,15.80
2019-01-11T18:13:11.605Z,14.50
2019-01-11T18:15:40.637Z,14.73
2019-01-11T18:18:09.727Z,15.60
2019-01-11T18:20:38.833Z,14.47
2019-01-11T18:23:08.183Z,17.33
2019-01-11T18:25:37.320Z,14.93
2019-01-11T18:28:06.572Z,13.00
2019-01-11T18:30:35.799Z,13.27
2019-01-11T18:33:05.239Z,11.73
2019-01-11T18:35:34.493Z,9.03
2019-01-11T18:38:03.538Z,11.00
2019-01-11T18:40:32.693Z,8.93
2019-01-11T18:43:02.251Z,11.70
2019-01-11T18:45:31.538Z,12.10
2019-01-11T18:48:00.635Z,10.97
2019-01-11T18:50:29.698Z,14.13
2019-01-11T18:52:58.799Z,11.47
2019-01-11T18:55:27.723Z,12.90
2019-01-11T18:57:56.677Z,11.93
2019-01-11T19:00:25.837Z,8.40
2019-01-11T19:02:55.306Z,10.10
2019-01-11T19:05:24.816Z,12.23
2019-01-11T19:07:53.967Z,11.23
2019-01-11T19:10:23.607Z,13.00
2019-01-11T19:12:52.957Z,12.50
2019-01-11T19:15:25.494Z,11.43
2019-01-11T19:17:54.699Z,11.13
2019-01-11T19:20:26.241Z,14.53
2019-01-11T19:22:55.354Z,9.97
2019-01-11T19:25:24.910Z,10.03
2019-01-11T19:27:54.216Z,10.27
2019-01-11T19:30:25.494Z,11.90
2019-01-11T19:32:54.580Z,12.20
2019-01-11T19:35:24.012Z,6.50
2019-01-11T19:37:53.223Z,8.57
2019-01-11T19:40:22.397Z,9.20
2019-01-11T19:42:51.809Z,10.00
2019-01-11T19:45:21.072Z,10.40
2019-01-11T19:47:51.409Z,8.53
2019-01-11T19:50:22.798Z,8.77
2019-01-11T19:52:52.032Z,10.30
2019-01-11T19:55:21.410Z,8.20
2019-01-11T19:57:50.566Z,11.20
2019-01-11T20:00:22.027Z,9.67
2019-01-11T20:02:51.334Z,10.87
2019-01-11T20:05:20.762Z,8.60
2019-01-11T20:07:50.457Z,10.73
2019-01-11T20:10:23.055Z,10.50
2019-01-11T20:12:53.334Z,9.50
2019-01-11T20:15:22.581Z,8.30
2019-01-11T20:17:51.886Z,10.10
2019-01-11T20:20:21.072Z,9.93
2019-01-11T20:22:50.144Z,13.43
2019-01-11T20:25:20.919Z,9.23
2019-01-11T20:27:50.081Z,14.00
2019-01-11T20:30:21.499Z,10.30
2019-01-11T20:32:50.647Z,9.50
2019-01-11T20:35:19.976Z,13.97
2019-01-11T20:37:49.555Z,11.53
2019-01-11T20:40:18.902Z,10.23
2019-01-11T20:42:48.387Z,11.30
2019-01-11T20:45:19.356Z,12.17
2019-01-11T20:47:48.688Z,10.03
2019-01-11T20:50:19.892Z,11.67
2019-01-11T20:52:49.024Z,14.60
2019-01-11T20:55:18.218Z,11.13
2019-01-11T20:57:47.429Z,10.97
2019-01-11T21:00:35.439Z,16.47
2019-01-11T21:03:06.717Z,13.03
2019-01-11T21:05:35.854Z,12.20
2019-01-11T21:08:05.193Z,15.67
2019-01-11T21:10:34.239Z,17.40
2019-01-11T21:13:03.389Z,10.80
2019-01-11T21:15:32.545Z,13.47
2019-01-11T21:18:01.943Z,13.77
2019-01-11T21:20:31.215Z,13.23
2019-01-11T21:23:00.525Z,13.53
2019-01-11T21:25:29.783Z,13.60
2019-01-11T21:27:59.186Z,13.57
2019-01-11T21:30:30.162Z,14.30
2019-01-11T21:33:00.047Z,18.37
2019-01-11T21:35:29.501Z,12.67
2019-01-11T21:37:58.648Z,12.60
2019-01-11T21:40:28.132Z,14.50
2019-01-11T21:42:57.689Z,11.17
2019-01-11T21:45:27.121Z,13.90
2019-01-11T21:47:56.195Z,14.43
2019-01-11T21:50:28.893Z,14.90
2019-01-11T21:52:58.060Z,15.30
2019-01-11T21:55:27.199Z,17.27
2019-01-11T21:57:56.191Z,15.40
2019-01-11T22:00:28.312Z,14.20
2019-01-11T22:02:57.662Z,12.70
2019-01-11T22:05:26.941Z,17.37
2019-01-11T22:07:56.191Z,14.50
2019-01-11T22:10:25.910Z,12.50
2019-01-11T22:12:55.386Z,15.43
2019-01-11T22:15:24.658Z,12.80
2019-01-11T22:17:54.619Z,9.73
2019-01-11T22:20:23.813Z,12.43
2019-01-11T22:22:52.957Z,12.50
2019-01-11T22:25:21.975Z,12.83
2019-01-11T22:27:51.031Z,11.90
2019-01-11T22:30:21.814Z,16.97
2019-01-11T22:32:50.879Z,10.77
2019-01-11T22:35:20.071Z,10.43
2019-01-11T22:37:49.324Z,13.10
2019-01-11T22:40:20.175Z,12.90
2019-01-11T22:42:51.125Z,14.33
2019-01-11T22:45:20.146Z,11.47
2019-01-11T22:47:49.142Z,12.97
2019-01-11T22:50:18.298Z,13.63
2019-01-11T22:52:47.403Z,15.50
2019-01-11T22:55:16.723Z,15.33
2019-01-11T22:57:45.928Z,16.83
